Map

Track Data

SID SEASON NUMBER BASIN SUBBASIN NAME ISO_TIME NATURE LAT LON WMO_WIND WMO_PRES WMO_AGENCY TRACK_TYPE DIST2LAND LANDFALL IFLAG USA_AGENCY USA_ATCF_ID USA_LAT USA_LON USA_RECORD USA_STATUS USA_WIND USA_PRES USA_SSHS USA_R34_NE USA_R34_SE USA_R34_SW USA_R34_NW USA_R50_NE USA_R50_SE USA_R50_SW USA_R50_NW USA_R64_NE USA_R64_SE USA_R64_SW USA_R64_NW USA_POCI USA_ROCI USA_RMW USA_EYE TOKYO_LAT TOKYO_LON TOKYO_GRADE TOKYO_WIND TOKYO_PRES TOKYO_R50_DIR TOKYO_R50_LONG TOKYO_R50_SHORT TOKYO_R30_DIR TOKYO_R30_LONG TOKYO_R30_SHORT TOKYO_LAND CMA_LAT CMA_LON CMA_CAT CMA_WIND CMA_PRES HKO_LAT HKO_LON HKO_CAT HKO_WIND HKO_PRES NEWDELHI_LAT NEWDELHI_LON NEWDELHI_GRADE NEWDELHI_WIND NEWDELHI_PRES NEWDELHI_CI NEWDELHI_DP NEWDELHI_POCI REUNION_LAT REUNION_LON REUNION_TYPE REUNION_WIND REUNION_PRES REUNION_TNUM REUNION_CI REUNION_RMW REUNION_R34_NE REUNION_R34_SE REUNION_R34_SW REUNION_R34_NW REUNION_R50_NE REUNION_R50_SE REUNION_R50_SW REUNION_R50_NW REUNION_R64_NE REUNION_R64_SE REUNION_R64_SW REUNION_R64_NW BOM_LAT BOM_LON BOM_TYPE BOM_WIND BOM_PRES BOM_TNUM BOM_CI BOM_RMW BOM_R34_NE BOM_R34_SE BOM_R34_SW BOM_R34_NW BOM_R50_NE BOM_R50_SE BOM_R50_SW BOM_R50_NW BOM_R64_NE BOM_R64_SE BOM_R64_SW BOM_R64_NW BOM_ROCI BOM_POCI BOM_EYE BOM_POS_METHOD BOM_PRES_METHOD NADI_LAT NADI_LON NADI_CAT NADI_WIND NADI_PRES WELLINGTON_LAT WELLINGTON_LON WELLINGTON_WIND WELLINGTON_PRES DS824_LAT DS824_LON DS824_STAGE DS824_WIND DS824_PRES TD9636_LAT TD9636_LON TD9636_STAGE TD9636_WIND TD9636_PRES TD9635_LAT TD9635_LON TD9635_WIND TD9635_PRES TD9635_ROCI NEUMANN_LAT NEUMANN_LON NEUMANN_CLASS NEUMANN_WIND NEUMANN_PRES MLC_LAT MLC_LON MLC_CLASS MLC_WIND MLC_PRES USA_GUST BOM_GUST BOM_GUST_PER REUNION_GUST REUNION_GUST_PER USA_SEAHGT USA_SEARAD_NE USA_SEARAD_SE USA_SEARAD_SW USA_SEARAD_NW STORM_SPEED STORM_DIR
1942236N15286 1942 42 NA CS NOT_NAMED 1942-08-23 12:00:00 TS 14.8000 -74.0000 30 hurdat_atl main 350 349 O_____________ hurdat_atl AL031942 14.8000 -74.0000 TD 30 -1 11 281
1942236N15286 1942 42 NA CS NOT_NAMED 1942-08-23 15:00:00 TS 14.9003 -74.5599 main 354 345 P_____________ AL031942 14.9003 -74.5599 TD 30 -1 11 281
1942236N15286 1942 42 NA CS NOT_NAMED 1942-08-23 18:00:00 TS 15.0000 -75.1000 30 hurdat_atl main 345 319 O_____________ hurdat_atl AL031942 15.0000 -75.1000 TD 30 -1 10 281
1942236N15286 1942 42 NA CS NOT_NAMED 1942-08-23 21:00:00 TS 15.0998 -75.6076 main 319 302 P_____________ AL031942 15.0998 -75.6076 TD 30 -1 10 282
1942236N15286 1942 42 NA CS NOT_NAMED 1942-08-24 00:00:00 TS 15.2000 -76.1000 30 hurdat_atl main 302 276 O_____________ hurdat_atl AL031942 15.2000 -76.1000 TD 30 -1 10 281
1942236N15286 1942 42 NA CS NOT_NAMED 1942-08-24 03:00:00 TS 15.2924 -76.6076 main 276 257 P_____________ AL031942 15.2924 -76.6076 TD 30 -1 10 282
1942236N15286 1942 42 NA CS NOT_NAMED 1942-08-24 06:00:00 TS 15.4000 -77.1000 30 hurdat_atl main 257 246 O_____________ hurdat_atl AL031942 15.4000 -77.1000 TD 30 -1 10 286
1942236N15286 1942 42 NA CS NOT_NAMED 1942-08-24 09:00:00 TS 15.5575 -77.5799 main 238 232 P_____________ AL031942 15.5575 -77.5799 TD 32 -1 9 289
1942236N15286 1942 42 NA CS NOT_NAMED 1942-08-24 12:00:00 TS 15.7000 -78.0000 35 hurdat_atl main 239 239 O_____________ hurdat_atl AL031942 15.7000 -78.0000 TS 35 0 7 286
1942236N15286 1942 42 NA CS NOT_NAMED 1942-08-24 15:00:00 TS 15.7573 -78.3226 main 242 242 P_____________ AL031942 15.7573 -78.3226 TS 35 0 6 280
1942236N15286 1942 42 NA CS NOT_NAMED 1942-08-24 18:00:00 TS 15.8000 -78.6000 35 hurdat_atl main 253 252 O_____________ hurdat_atl AL031942 15.8000 -78.6000 TS 35 0 6 282
1942236N15286 1942 42 NA CS NOT_NAMED 1942-08-24 21:00:00 TS 15.8774 -78.8926 main 257 257 P_____________ AL031942 15.8774 -78.8926 TS 37 0 6 289
1942236N15286 1942 42 NA CS NOT_NAMED 1942-08-25 00:00:00 TS 16.0000 -79.2000 40 hurdat_atl main 260 252 O_____________ hurdat_atl AL031942 16.0000 -79.2000 TS 40 0 7 296
1942236N15286 1942 42 NA CS NOT_NAMED 1942-08-25 03:00:00 TS 16.1850 -79.5500 main 252 250 P_____________ AL031942 16.1850 -79.5500 TS 40 0 8 301
1942236N15286 1942 42 NA CS NOT_NAMED 1942-08-25 06:00:00 TS 16.4000 -79.9000 40 hurdat_atl main 256 254 O_____________ hurdat_atl AL031942 16.4000 -79.9000 TS 40 0 8 304
1942236N15286 1942 42 NA CS NOT_NAMED 1942-08-25 09:00:00 TS 16.6150 -80.2225 main 261 261 P_____________ AL031942 16.6150 -80.2225 TS 42 0 7 305
1942236N15286 1942 42 NA CS NOT_NAMED 1942-08-25 12:00:00 TS 16.8000 -80.5000 45 hurdat_atl main 272 272 O_____________ hurdat_atl AL031942 16.8000 -80.5000 TS 45 0 6 303
1942236N15286 1942 42 NA CS NOT_NAMED 1942-08-25 15:00:00 TS 16.9149 -80.7076 main 283 283 P_____________ AL031942 16.9149 -80.7076 TS 47 0 4 297
1942236N15286 1942 42 NA CS NOT_NAMED 1942-08-25 18:00:00 TS 17.0000 -80.9000 50 hurdat_atl main 297 297 O_____________ hurdat_atl AL031942 17.0000 -80.9000 TS 50 0 5 294
1942236N15286 1942 42 NA CS NOT_NAMED 1942-08-25 21:00:00 TS 17.1000 -81.1500 main 311 301 P_____________ AL031942 17.1000 -81.1500 TS 50 0 5 293
1942236N15286 1942 42 NA CS NOT_NAMED 1942-08-26 00:00:00 TS 17.2000 -81.4000 50 hurdat_atl main 301 293 O_____________ hurdat_atl AL031942 17.2000 -81.4000 TS 50 0 5 295
1942236N15286 1942 42 NA CS NOT_NAMED 1942-08-26 03:00:00 TS 17.3000 -81.6075 main 295 288 P_____________ AL031942 17.3000 -81.6075 TS 50 0 4 298
1942236N15286 1942 42 NA CS NOT_NAMED 1942-08-26 06:00:00 TS 17.4000 -81.8000 50 hurdat_atl main 290 284 O_____________ hurdat_atl AL031942 17.4000 -81.8000 TS 50 0 4 299
1942236N15286 1942 42 NA CS NOT_NAMED 1942-08-26 09:00:00 TS 17.4999 -81.9850 main 287 282 P_____________ AL031942 17.4999 -81.9850 TS 52 0 4 298
1942236N15286 1942 42 NA CS NOT_NAMED 1942-08-26 12:00:00 TS 17.6000 -82.2000 55 hurdat_atl main 287 282 O_____________ hurdat_atl AL031942 17.6000 -82.2000 TS 55 0 5 293
1942236N15286 1942 42 NA CS NOT_NAMED 1942-08-26 15:00:00 TS 17.7000 -82.4775 main 284 274 P_____________ AL031942 17.7000 -82.4775 TS 55 0 6 289
1942236N15286 1942 42 NA CS NOT_NAMED 1942-08-26 18:00:00 TS 17.8000 -82.8000 55 hurdat_atl main 274 263 O_____________ hurdat_atl AL031942 17.8000 -82.8000 TS 55 0 7 287
1942236N15286 1942 42 NA CS NOT_NAMED 1942-08-26 21:00:00 TS 17.8925 -83.1501 main 262 257 P_____________ AL031942 17.8925 -83.1501 TS 57 0 7 287
1942236N15286 1942 42 NA CS NOT_NAMED 1942-08-27 00:00:00 TS 18.0000 -83.5000 60 hurdat_atl main 260 257 O_____________ hurdat_atl AL031942 18.0000 -83.5000 TS 60 0 7 290
1942236N15286 1942 42 NA CS NOT_NAMED 1942-08-27 03:00:00 TS 18.1274 -83.8151 main 262 262 P_____________ AL031942 18.1274 -83.8151 TS 65 1 6 298
1942236N15286 1942 42 NA CS NOT_NAMED 1942-08-27 06:00:00 TS 18.3000 -84.1000 70 hurdat_atl main 276 273 O_____________ hurdat_atl AL031942 18.3000 -84.1000 HU 70 1 6 309
1942236N15286 1942 42 NA CS NOT_NAMED 1942-08-27 09:00:00 TS 18.5273 -84.3352 main 294 294 P_____________ AL031942 18.5273 -84.3352 HU 75 1 7 316
1942236N15286 1942 42 NA CS NOT_NAMED 1942-08-27 12:00:00 TS 18.8000 -84.6000 80 hurdat_atl main 304 266 O_____________ hurdat_atl AL031942 18.8000 -84.6000 HU 80 1 8 312
1942236N15286 1942 42 NA CS NOT_NAMED 1942-08-27 15:00:00 TS 19.0700 -84.9702 main 255 209 P_____________ AL031942 19.0700 -84.9702 HU 85 2 10 308
1942236N15286 1942 42 NA CS NOT_NAMED 1942-08-27 18:00:00 TS 19.4000 -85.4000 90 hurdat_atl main 209 160 O_____________ hurdat_atl AL031942 19.4000 -85.4000 HU 90 2 11 314
1942236N15286 1942 42 NA CS NOT_NAMED 1942-08-27 21:00:00 TS 19.8272 -85.8128 main 160 83 P_____________ AL031942 19.8272 -85.8128 HU 90 2 12 317
1942236N15286 1942 42 NA CS NOT_NAMED 1942-08-28 00:00:00 TS 20.3000 -86.3000 90 hurdat_atl main 83 11 O_____________ hurdat_atl AL031942 20.3000 -86.3000 HU 90 2 14 311
1942236N15286 1942 42 NA CS NOT_NAMED 1942-08-28 03:00:00 TS 20.7426 -86.9277 main 11 0 P_____________ AL031942 20.7426 -86.9277 HU 80 1 15 307
1942236N15286 1942 42 NA NA NOT_NAMED 1942-08-28 06:00:00 TS 21.2000 -87.6000 70 hurdat_atl main 0 0 O_____________ hurdat_atl AL031942 21.2000 -87.6000 HU 70 1 16 308
1942236N15286 1942 42 NA GM NOT_NAMED 1942-08-28 09:00:00 TS 21.7075 -88.2374 main 22 22 P_____________ AL031942 21.7075 -88.2374 HU 75 1 15 312
1942236N15286 1942 42 NA GM NOT_NAMED 1942-08-28 12:00:00 TS 22.2000 -88.8000 80 hurdat_atl main 80 80 O_____________ hurdat_atl AL031942 22.2000 -88.8000 HU 80 1 13 315
1942236N15286 1942 42 NA GM NOT_NAMED 1942-08-28 15:00:00 TS 22.6146 -89.2232 main 137 137 P_____________ AL031942 22.6146 -89.2232 HU 85 2 11 317
1942236N15286 1942 42 NA GM NOT_NAMED 1942-08-28 18:00:00 TS 23.0000 -89.6000 90 hurdat_atl main 192 192 O_____________ hurdat_atl AL031942 23.0000 -89.6000 HU 90 2 11 317
1942236N15286 1942 42 NA GM NOT_NAMED 1942-08-28 21:00:00 TS 23.3997 -90.0204 main 245 245 P_____________ AL031942 23.3997 -90.0204 HU 92 2 12 314
1942236N15286 1942 42 NA GM NOT_NAMED 1942-08-29 00:00:00 TS 23.8000 -90.5000 95 hurdat_atl main 297 297 O_____________ hurdat_atl AL031942 23.8000 -90.5000 HU 95 2 13 309
1942236N15286 1942 42 NA GM NOT_NAMED 1942-08-29 03:00:00 TS 24.1926 -91.0852 main 356 356 P_____________ AL031942 24.1926 -91.0852 HU 97 3 14 306
1942236N15286 1942 42 NA GM NOT_NAMED 1942-08-29 06:00:00 TS 24.6000 -91.7000 100 hurdat_atl main 416 416 O_____________ hurdat_atl AL031942 24.6000 -91.7000 HU 100 3 14 309
1942236N15286 1942 42 NA GM NOT_NAMED 1942-08-29 09:00:00 TS 25.0497 -92.2578 main 478 433 P_____________ AL031942 25.0497 -92.2578 HU 100 3 13 312
1942236N15286 1942 42 NA GM NOT_NAMED 1942-08-29 12:00:00 TS 25.5000 -92.8000 100 hurdat_atl main 433 379 O_____________ hurdat_atl AL031942 25.5000 -92.8000 HU 100 3 13 311
1942236N15286 1942 42 NA GM NOT_NAMED 1942-08-29 15:00:00 TS 25.9073 -93.3505 main 369 320 P_____________ AL031942 25.9073 -93.3505 HU 100 3 13 309
1942236N15286 1942 42 NA GM NOT_NAMED 1942-08-29 18:00:00 TS 26.3000 -93.9000 100 hurdat_atl main 320 264 O_____________ hurdat_atl AL031942 26.3000 -93.9000 HU 100 3 13 309
1942236N15286 1942 42 NA GM NOT_NAMED 1942-08-29 21:00:00 TS 26.6998 -94.4504 main 258 194 P_____________ AL031942 26.6998 -94.4504 HU 100 3 13 309
1942236N15286 1942 42 NA GM NOT_NAMED 1942-08-30 00:00:00 TS 27.1000 -95.0000 100 hurdat_atl main 194 131 O_____________ hurdat_atl AL031942 27.1000 -95.0000 HU 100 3 13 309
1942236N15286 1942 42 NA GM NOT_NAMED 1942-08-30 03:00:00 TS 27.4999 -95.5605 main 126 63 P_____________ AL031942 27.4999 -95.5605 HU 100 3 13 309
1942236N15286 1942 42 NA GM NOT_NAMED 1942-08-30 06:00:00 TS 27.9000 -96.1000 100 950 hurdat_atl main 63 9 O_____________ hurdat_atl AL031942 27.9000 -96.1000 HU 100 950 3 12 311
1942236N15286 1942 42 NA GM NOT_NAMED 1942-08-30 09:00:00 TS 28.3000 -96.6000 100 950 hurdat_atl main 9 0 O_____________ hurdat_atl AL031942 28.3000 -96.6000 L HU 100 950 3 13 313
1942236N15286 1942 42 NA NA NOT_NAMED 1942-08-30 12:00:00 TS 28.8000 -97.2000 85 952 hurdat_atl main 0 0 O_____________ hurdat_atl AL031942 28.8000 -97.2000 HU 85 952 2 14 306
1942236N15286 1942 42 NA NA NOT_NAMED 1942-08-30 15:00:00 TS 29.1272 -97.8806 main 0 0 P_____________ AL031942 29.1272 -97.8806 HU 75 1 14 296
1942236N15286 1942 42 NA NA NOT_NAMED 1942-08-30 18:00:00 TS 29.4000 -98.6000 65 hurdat_atl main 0 0 O_____________ hurdat_atl AL031942 29.4000 -98.6000 HU 65 1 14 298
1942236N15286 1942 42 NA NA NOT_NAMED 1942-08-30 21:00:00 TS 29.7846 -99.3003 main 0 0 P_____________ AL031942 29.7846 -99.3003 HU 55 0 15 303
1942236N15286 1942 42 NA NA NOT_NAMED 1942-08-31 00:00:00 TS 30.2000 -100.000 45 hurdat_atl main 0 0 O_____________ hurdat_atl AL031942 30.2000 -100.000 TS 45 0 15 304
1942236N15286 1942 42 NA NA NOT_NAMED 1942-08-31 03:00:00 TS 30.6075 -100.723 main 0 0 P_____________ AL031942 30.6075 -100.723 TS 42 0 14 304
1942236N15286 1942 42 NA NA NOT_NAMED 1942-08-31 06:00:00 TS 31.0000 -101.400 40 hurdat_atl main 0 0 O_____________ hurdat_atl AL031942 31.0000 -101.400 TS 40 0 13 306
1942236N15286 1942 42 NA NA NOT_NAMED 1942-08-31 09:00:00 TS 31.3719 -101.973 main 0 0 P_____________ AL031942 31.3719 -101.973 TS 37 0 12 307
1942236N15286 1942 42 NA NA NOT_NAMED 1942-08-31 12:00:00 TS 31.7000 -102.500 35 hurdat_atl main 0 0 O_____________ hurdat_atl AL031942 31.7000 -102.500 TS 35 0 11 303
1942236N15286 1942 42 NA NA NOT_NAMED 1942-08-31 15:00:00 TS 31.9953 -103.102 main 0 0 P_____________ AL031942 31.9953 -103.102 TS 35 0 11 298
1942236N15286 1942 42 NA NA NOT_NAMED 1942-08-31 18:00:00 TS 32.2000 -103.600 35 hurdat_atl main 0 0 O_____________ hurdat_atl AL031942 32.2000 -103.600 TS 35 0 7 293
1942236N15286 1942 42 NA NA NOT_NAMED 1942-08-31 21:00:00 TS 32.2721 -103.861 main 0 0 P_____________ AL031942 32.2721 -103.861 TS 32 -1 4 287
1942236N15286 1942 42 NA NA NOT_NAMED 1942-09-01 00:00:00 TS 32.3000 -104.000 30 hurdat_atl main 0 0 O_____________ hurdat_atl AL031942 32.3000 -104.000 TD 30 -1 3 291
1942236N15286 1942 42 NA NA NOT_NAMED 1942-09-01 03:00:00 TS 32.3700 -104.165 main 0 0 P_____________ AL031942 32.3700 -104.165 TD 27 -1 3 308
1942236N15286 1942 42 NA NA NOT_NAMED 1942-09-01 06:00:00 TS 32.5000 -104.300 25 hurdat_atl main 0 0 O_____________ hurdat_atl AL031942 32.5000 -104.300 TD 25 -1 4 330
1942236N15286 1942 42 NA NA NOT_NAMED 1942-09-01 09:00:00 TS 32.7225 -104.407 main 0 0 P_____________ AL031942 32.7225 -104.407 TD 25 -1 5 341
1942236N15286 1942 42 NA NA NOT_NAMED 1942-09-01 12:00:00 TS 33.0000 -104.500 25 hurdat_atl main 0 O_____________ hurdat_atl AL031942 33.0000 -104.500 TD 25 -1 6 344

About IBTrACS Database

This database is a web-friendly format of International Best Track Archive for Climate Stewardship (IBTrACS), a global best track data archive curated by NOAA dating back to 1842.

Updated: 2021-10-25